Time;durP1;ratioP1;P1;durP2;ratioP2;P2;SDS_P1;SDS_P2;PMS_P1;PMS_P2;Temp;Humidity;BMP_temperature;BMP_pressure;BME280_temperature;BME280_humidity;BME280_pressure;Samples;Min_cycle;Max_cycle;Signal;HPM_P1;HPM_P2
2021/01/12 00:03:48;;;;;;;51.28;20.33;;;;;;;-1.73;52.59;99223.72;10458910;28;20433;-49
2021/01/12 00:08:49;;;;;;;43.67;16.52;;;;;;;-1.67;52.82;99228.63;10472851;28;20157;-50
2021/01/12 00:13:52;;;;;;;41.78;17.55;;;;;;;-1.80;52.96;99238.63;10505974;28;20045;-49
2021/01/12 00:18:53;;;;;;;36.80;15.63;;;;;;;-1.79;52.64;99239.44;10489580;28;20049;-51
2021/01/12 00:23:55;;;;;;;44.70;15.50;;;;;;;-1.74;52.65;99238.34;10463771;28;20393;-49
2021/01/12 00:28:58;;;;;;;36.70;15.48;;;;;;;-1.81;52.91;99241.28;10463084;28;20045;-50
2021/01/12 00:33:59;;;;;;;44.03;19.73;;;;;;;-1.88;52.77;99240.66;10464840;28;20056;-51
2021/01/12 00:39:01;;;;;;;48.03;20.52;;;;;;;-1.93;53.14;99243.44;10462955;28;20048;-56
2021/01/12 00:44:04;;;;;;;36.58;14.10;;;;;;;-1.88;52.95;99246.69;10463207;28;20053;-51
2021/01/12 00:49:06;;;;;;;41.17;16.67;;;;;;;-1.98;53.21;99249.69;10497250;28;20135;-55
2021/01/12 00:54:09;;;;;;;39.35;15.73;;;;;;;-1.95;53.12;99252.97;10492558;28;20056;-50
2021/01/12 00:59:12;;;;;;;44.25;16.27;;;;;;;-1.93;52.88;99252.91;10464364;28;20048;-51
2021/01/12 01:04:14;;;;;;;32.42;11.85;;;;;;;-1.88;53.03;99256.97;10461581;28;20198;-50
2021/01/12 01:09:16;;;;;;;43.33;15.33;;;;;;;-1.83;52.90;99248.22;10474661;28;20052;-49
2021/01/12 01:14:20;;;;;;;37.30;14.60;;;;;;;-1.80;52.64;99253.25;10500980;28;20295;-49
2021/01/12 01:19:22;;;;;;;38.17;13.95;;;;;;;-1.82;53.03;99249.88;10503632;28;20060;-49
2021/01/12 01:24:24;;;;;;;32.10;13.50;;;;;;;-1.79;52.44;99260.06;10503139;28;20055;-50
2021/01/12 01:29:27;;;;;;;29.90;11.25;;;;;;;-1.88;52.74;99250.97;10502577;28;20052;-50
2021/01/12 01:34:28;;;;;;;38.03;12.80;;;;;;;-2.01;52.71;99254.97;10497731;28;20049;-51
2021/01/12 01:39:30;;;;;;;30.52;12.98;;;;;;;-2.02;52.87;99261.03;10461557;28;20045;-51
2021/01/12 01:44:33;;;;;;;37.13;14.52;;;;;;;-2.08;52.85;99257.78;10460685;28;20532;-51
2021/01/12 01:49:35;;;;;;;40.10;14.20;;;;;;;-2.14;52.99;99267.50;10460176;28;20052;-51
2021/01/12 01:54:38;;;;;;;29.65;12.85;;;;;;;-2.24;53.11;99261.06;10496557;28;20122;-51
2021/01/12 01:59:41;;;;;;;;;;;;;;;-2.28;53.09;99254.34;10502103;28;20106;-55
2021/01/12 02:04:44;;;;;;;34.97;13.20;;;;;;;-2.24;52.86;99263.63;10464204;28;19929;-49
2021/01/12 02:09:49;;;;;;;32.22;13.65;;;;;;;-2.24;53.05;99258.47;10476892;28;20049;-51
2021/01/12 02:14:54;;;;;;;29.17;13.50;;;;;;;-2.11;52.76;99259.66;10501023;28;20049;-51
2021/01/12 02:19:57;;;;;;;31.77;12.82;;;;;;;-2.06;52.59;99268.03;10501038;28;20070;-51
2021/01/12 02:25:00;;;;;;;36.95;14.20;;;;;;;-2.02;52.52;99269.59;10466384;28;20524;-49
2021/01/12 02:30:01;;;;;;;31.15;14.23;;;;;;;-2.06;52.69;99262.88;10462854;28;20041;-49
2021/01/12 02:35:05;;;;;;;32.97;14.13;;;;;;;-1.99;52.62;99264.31;10459935;28;20052;-51
2021/01/12 02:40:10;;;;;;;38.47;12.30;;;;;;;-1.96;52.32;99264.19;10458139;28;20079;-49
2021/01/12 02:45:13;;;;;;;38.50;13.98;;;;;;;-1.91;52.16;99267.41;10458383;28;20481;-49
2021/01/12 02:50:15;;;;;;;38.35;15.68;;;;;;;-1.92;52.07;99268.28;10458230;28;20048;-49
2021/01/12 02:55:18;;;;;;;28.92;13.00;;;;;;;-2.09;52.50;99268.16;10457670;28;20053;-50
2021/01/12 03:00:21;;;;;;;33.33;13.95;;;;;;;-2.16;52.70;99266.72;10458299;28;20118;-51
2021/01/12 03:05:22;;;;;;;28.50;11.73;;;;;;;-2.21;52.78;99272.06;10430362;28;20155;-50
2021/01/12 03:10:25;;;;;;;33.90;13.35;;;;;;;-2.21;52.47;99273.81;10459550;28;20494;-50
2021/01/12 03:15:27;;;;;;;34.23;13.50;;;;;;;-2.20;52.31;99270.31;10490032;28;20045;-49
2021/01/12 03:20:28;;;;;;;32.35;12.77;;;;;;;-2.22;52.32;99272.13;10456676;28;20500;-50
2021/01/12 03:25:31;;;;;;;28.90;12.07;;;;;;;-2.26;52.30;99270.56;10456710;28;20044;-49
2021/01/12 03:30:32;;;;;;;31.05;12.50;;;;;;;-2.19;52.22;99265.09;10457512;28;20053;-49
2021/01/12 03:35:34;;;;;;;28.65;11.55;;;;;;;-2.15;52.08;99266.66;10459100;28;20075;-50
2021/01/12 03:40:37;;;;;;;31.67;12.88;;;;;;;-2.19;52.11;99266.84;10458875;28;20103;-50
2021/01/12 03:45:38;;;;;;;35.83;12.07;;;;;;;-2.24;51.88;99268.78;10457524;28;20363;-49
2021/01/12 03:50:40;;;;;;;28.92;9.80;;;;;;;-2.24;52.23;99259.31;10456444;28;20053;-49
2021/01/12 03:55:43;;;;;;;27.65;10.32;;;;;;;-2.39;52.48;99258.19;10456037;28;20049;-49
2021/01/12 04:00:44;;;;;;;31.13;12.48;;;;;;;-2.36;52.56;99250.34;10456953;28;20109;-49
2021/01/12 04:05:46;;;;;;;38.92;12.90;;;;;;;-2.36;52.19;99258.06;10459701;28;20063;-49
2021/01/12 04:10:49;;;;;;;29.88;12.35;;;;;;;-2.39;52.54;99255.59;10480087;28;20045;-50
2021/01/12 04:15:53;;;;;;;43.03;14.60;;;;;;;-2.43;52.56;99258.34;10464813;28;20053;-51
2021/01/12 04:20:54;;;;;;;36.42;12.63;;;;;;;-2.38;52.27;99262.41;10455769;28;20053;-50
2021/01/12 04:25:57;;;;;;;30.20;11.93;;;;;;;-2.39;52.55;99255.59;10454024;28;20056;-54
2021/01/12 04:30:59;;;;;;;31.75;12.07;;;;;;;-2.23;52.27;99255.00;10459671;28;20148;-49
2021/01/12 04:36:00;;;;;;;32.88;11.50;;;;;;;-2.19;52.12;99256.53;10497080;28;20063;-51
2021/01/12 04:41:03;;;;;;;27.65;11.02;;;;;;;-2.34;52.46;99271.72;10498174;28;20496;-54
2021/01/12 04:46:05;;;;;;;35.22;12.57;;;;;;;-2.37;52.48;99269.25;10497362;28;20481;-50
2021/01/12 04:51:08;;;;;;;39.55;14.35;;;;;;;-2.40;52.47;99264.25;10503191;28;20040;-49
2021/01/12 04:56:11;;;;;;;34.50;14.35;;;;;;;-2.45;52.79;99263.56;10507270;28;20375;-49
2021/01/12 05:01:15;;;;;;;33.95;13.27;;;;;;;-2.37;52.68;99264.13;10506967;28;20148;-49
2021/01/12 05:06:19;;;;;;;33.88;12.52;;;;;;;-2.57;52.80;99271.75;10505477;28;20109;-50
2021/01/12 05:11:24;;;;;;;33.05;12.38;;;;;;;-2.70;53.08;99280.84;10504405;28;20041;-50
2021/01/12 05:16:26;;;;;;;31.48;12.77;;;;;;;-2.69;52.99;99274.81;10506017;28;20053;-49
2021/01/12 05:21:33;;;;;;;31.00;11.60;;;;;;;-2.78;52.90;99279.38;10504890;28;20131;-49
2021/01/12 05:26:37;;;;;;;28.95;10.52;;;;;;;-2.90;52.84;99269.56;10504116;28;20466;-51
2021/01/12 05:31:39;;;;;;;36.15;13.50;;;;;;;-3.07;52.96;99277.06;10503711;28;20063;-50
2021/01/12 05:36:51;;;;;;;33.92;13.75;;;;;;;-3.05;52.84;99282.97;10503428;28;20095;-50
2021/01/12 05:41:55;;;;;;;29.00;11.82;;;;;;;-3.14;52.72;99291.88;10503549;28;20075;-51
2021/01/12 05:46:56;;;;;;;;;;;;;;;-3.32;52.90;99298.50;10508278;28;20521;-50
2021/01/12 05:51:58;;;;;;;33.03;12.85;;;;;;;-3.27;53.12;99300.91;10504810;28;19924;-50
2021/01/12 05:57:02;;;;;;;31.88;13.90;;;;;;;-3.21;52.81;99307.56;10502946;28;20135;-50
2021/01/12 06:02:08;;;;;;;32.85;12.57;;;;;;;-3.10;52.94;99305.47;10501919;28;20126;-50
2021/01/12 06:07:10;;;;;;;47.72;17.45;;;;;;;-3.01;52.63;99312.84;10504504;28;20051;-50
2021/01/12 06:12:15;;;;;;;41.15;16.15;;;;;;;-3.05;52.53;99325.00;10503909;28;20040;-49
2021/01/12 06:17:18;;;;;;;40.28;16.02;;;;;;;-3.18;52.72;99331.44;10503656;28;20059;-48
2021/01/12 06:22:23;;;;;;;40.10;16.23;;;;;;;-3.36;52.81;99330.34;10503517;28;20102;-48
2021/01/12 06:27:29;;;;;;;34.75;14.30;;;;;;;-3.42;53.12;99329.72;10502400;28;20055;-48
2021/01/12 06:32:32;;;;;;;37.00;14.13;;;;;;;-3.46;52.57;99336.69;10503878;28;20040;-48
2021/01/12 06:37:39;;;;;;;31.50;12.77;;;;;;;-3.55;52.29;99334.44;10504167;28;20475;-48
2021/01/12 06:42:42;;;;;;;33.90;13.70;;;;;;;-3.44;52.25;99334.91;10504566;28;20075;-48
2021/01/12 06:47:43;;;;;;;22.25;9.93;;;;;;;-3.45;52.48;99338.34;10503597;28;20400;-49
2021/01/12 06:52:47;;;;;;;33.10;12.88;;;;;;;-3.49;52.76;99340.19;10501442;28;20048;-49
2021/01/12 06:57:51;;;;;;;26.42;11.32;;;;;;;-3.57;52.94;99337.06;10501527;28;20110;-48
2021/01/12 07:02:57;;;;;;;32.45;11.73;;;;;;;-3.54;52.79;99338.66;10500661;28;20071;-49
2021/01/12 07:08:06;;;;;;;26.20;12.43;;;;;;;-3.52;52.90;99347.19;10502668;28;20064;-48
2021/01/12 07:13:09;;;;;;;34.53;14.20;;;;;;;-3.26;52.37;99336.84;10503803;28;20056;-49
2021/01/12 07:18:11;;;;;;;34.63;13.63;;;;;;;-3.05;51.92;99344.69;10501398;28;20106;-48
2021/01/12 07:23:13;;;;;;;31.00;13.20;;;;;;;-2.92;52.03;99343.38;10509116;28;20624;-48
2021/01/12 07:28:19;;;;;;;32.17;12.63;;;;;;;-2.81;51.90;99351.53;10505276;28;20040;-56
2021/01/12 07:33:23;;;;;;;25.48;10.05;;;;;;;-2.64;51.22;99352.69;10502008;28;20052;-48
2021/01/12 07:38:25;;;;;;;;;;;;;;;-2.55;51.68;99352.34;10502768;28;20048;-48
2021/01/12 07:43:29;;;;;;;37.28;16.45;;;;;;;-2.06;51.13;99345.31;10502064;28;19924;-50
2021/01/12 07:48:36;;;;;;;37.90;14.48;;;;;;;-1.88;51.34;99354.88;10501724;28;20044;-48
2021/01/12 07:53:38;;;;;;;34.00;14.98;;;;;;;-1.77;51.22;99356.19;10502909;28;20056;-50
2021/01/12 07:58:42;;;;;;;37.45;14.95;;;;;;;-1.81;50.98;99364.94;10501853;28;20434;-48
2021/01/12 08:03:43;;;;;;;;;;;;;;;-1.69;50.89;99369.59;10502519;28;20075;-49
2021/01/12 08:08:56;;;;;;;35.30;14.20;;;;;;;-1.66;51.08;99366.91;10501355;28;19924;-48
2021/01/12 08:14:05;;;;;;;33.38;13.63;;;;;;;-1.67;51.48;99362.63;10502234;28;20139;-49
2021/01/12 08:19:07;;;;;;;35.45;13.13;;;;;;;-1.52;51.20;99354.28;10502217;28;20049;-49
2021/01/12 08:24:10;;;;;;;39.55;16.05;;;;;;;-1.28;51.05;99364.47;10503651;28;20049;-49
2021/01/12 08:29:14;;;;;;;36.95;14.15;;;;;;;-0.88;50.63;99348.13;10508811;28;20063;-48
2021/01/12 08:34:21;;;;;;;32.92;14.48;;;;;;;-1.08;49.96;99355.88;10509572;28;20060;-50
2021/01/12 08:39:24;;;;;;;32.65;13.52;;;;;;;-1.43;50.03;99365.94;10507572;28;20040;-48
2021/01/12 08:44:33;;;;;;;34.63;13.82;;;;;;;-1.78;50.97;99367.41;10508558;28;20139;-49
2021/01/12 08:49:36;;;;;;;33.08;13.02;;;;;;;-1.75;50.88;99350.06;10506173;28;20048;-49
2021/01/12 08:54:38;;;;;;;28.27;12.57;;;;;;;-1.84;51.06;99355.59;10512301;28;20374;-51
2021/01/12 08:59:41;;;;;;;36.92;13.00;;;;;;;-1.77;50.98;99345.88;10504853;28;20428;-51
2021/01/12 09:04:42;;;;;;;31.80;12.30;;;;;;;-1.70;50.85;99362.75;10505192;28;20045;-51
2021/01/12 09:09:51;;;;;;;26.23;9.43;;;;;;;-1.89;50.87;99362.66;10506237;28;20055;-50
2021/01/12 09:14:54;;;;;;;30.80;13.98;;;;;;;-2.13;50.51;99356.72;10505774;28;20055;-50
2021/01/12 09:19:55;;;;;;;22.55;8.73;;;;;;;-2.33;49.92;99355.78;10504994;28;20201;-49
2021/01/12 09:24:58;;;;;;;30.13;11.90;;;;;;;-2.67;50.27;99352.78;10503468;28;20071;-51
2021/01/12 09:30:01;;;;;;;30.77;12.73;;;;;;;-2.38;50.83;99354.25;10506153;28;20044;-50
2021/01/12 09:35:06;;;;;;;26.20;11.57;;;;;;;-2.17;50.45;99357.75;10503403;28;20131;-50
2021/01/12 09:40:09;;;;;;;22.88;9.38;;;;;;;-2.26;50.07;99356.38;10504655;28;20102;-50
2021/01/12 09:45:12;;;;;;;22.77;9.30;;;;;;;-2.50;50.53;99347.84;10502867;28;20048;-50
2021/01/12 09:50:14;;;;;;;25.23;9.60;;;;;;;-2.42;50.30;99358.69;10503605;28;20382;-49
2021/01/12 09:55:16;;;;;;;27.70;10.45;;;;;;;-2.62;50.18;99344.00;10503055;28;20044;-51
2021/01/12 10:00:19;;;;;;;25.00;10.25;;;;;;;-2.62;50.38;99340.56;10502630;28;20048;-49
2021/01/12 10:05:21;;;;;;;;;;;;;;;-2.24;50.95;99335.72;10502956;28;20182;-50
2021/01/12 10:10:23;;;;;;;30.17;13.52;;;;;;;-2.00;50.50;99336.47;10502010;28;19924;-51
2021/01/12 10:15:26;;;;;;;29.30;11.07;;;;;;;-1.96;50.63;99332.91;10502582;28;20090;-51
2021/01/12 10:20:28;;;;;;;37.28;14.50;;;;;;;-1.76;50.79;99324.34;10502207;28;20067;-49
2021/01/12 10:25:31;;;;;;;38.33;12.95;;;;;;;-1.57;50.95;99312.41;10501587;28;20049;-51
2021/01/12 10:30:37;;;;;;;32.90;13.18;;;;;;;-1.42;50.43;99311.75;10502564;28;20041;-57
2021/01/12 10:35:39;;;;;;;31.80;13.02;;;;;;;-1.36;50.78;99299.50;10507530;28;20056;-49
2021/01/12 10:40:41;;;;;;;32.97;13.57;;;;;;;-1.09;50.74;99302.63;10501644;28;20064;-51
2021/01/12 10:45:44;;;;;;;40.63;14.73;;;;;;;-0.97;50.45;99308.06;10500661;28;20482;-56
2021/01/12 10:50:45;;;;;;;26.73;11.30;;;;;;;-1.22;50.08;99302.31;10500755;28;20072;-51
2021/01/12 10:55:47;;;;;;;34.63;13.43;;;;;;;-1.31;50.10;99303.56;10500029;28;20058;-49
2021/01/12 11:00:51;;;;;;;26.42;12.82;;;;;;;-1.33;49.90;99305.34;10500431;28;20143;-51
2021/01/12 11:05:54;;;;;;;37.67;15.43;;;;;;;-1.37;49.66;99314.13;10500666;28;20109;-50
2021/01/12 11:10:56;;;;;;;33.23;14.37;;;;;;;-1.33;49.78;99320.81;10500261;28;20051;-51
2021/01/12 11:15:59;;;;;;;31.80;14.18;;;;;;;-1.55;50.03;99320.06;10500842;28;20072;-52
2021/01/12 11:21:03;;;;;;;23.10;9.82;;;;;;;-1.70;49.85;99326.69;10500535;28;20081;-49
2021/01/12 11:26:07;;;;;;;34.05;14.80;;;;;;;-1.81;49.81;99318.56;10498909;28;20076;-50
2021/01/12 11:31:11;;;;;;;32.20;13.93;;;;;;;-1.82;49.38;99316.88;10500404;28;20101;-50
2021/01/12 11:36:14;;;;;;;32.75;13.95;;;;;;;-1.90;49.42;99323.19;10501307;28;20055;-50
2021/01/12 11:41:15;;;;;;;26.35;12.80;;;;;;;-1.98;49.70;99317.50;10500089;28;20465;-51
2021/01/12 11:46:27;;;;;;;35.35;15.20;;;;;;;-2.06;49.63;99319.56;10499827;28;20048;-50
2021/01/12 11:51:36;;;;;;;37.42;13.77;;;;;;;-2.17;49.67;99324.28;10499535;28;20083;-50
2021/01/12 11:56:38;;;;;;;27.15;11.50;;;;;;;-2.33;49.89;99319.72;10499532;28;20060;-50
2021/01/12 12:01:45;;;;;;;34.00;13.40;;;;;;;-2.62;49.51;99326.00;10505285;28;20090;-49
2021/01/12 12:06:47;;;;;;;31.70;12.48;;;;;;;-2.85;49.92;99328.56;10508264;28;20135;-54
2021/01/12 12:11:49;;;;;;;32.13;13.40;;;;;;;-2.74;49.89;99316.16;10507246;28;20040;-50
2021/01/12 12:16:54;;;;;;;27.20;11.25;;;;;;;-2.73;49.75;99317.00;10511964;28;20078;-51
2021/01/12 12:21:58;;;;;;;29.27;12.60;;;;;;;-2.74;49.88;99321.31;10507972;28;20075;-50
2021/01/12 12:27:00;;;;;;;;;;;;;;;-2.73;50.11;99317.00;10507321;28;20059;-49
2021/01/12 12:32:07;;;;;;;36.08;13.25;;;;;;;-2.67;50.29;99301.31;10506499;28;20457;-51
2021/01/12 12:37:10;;;;;;;34.97;12.70;;;;;;;-2.69;49.98;99297.97;10508086;28;20052;-48
2021/01/12 12:42:13;;;;;;;28.60;14.07;;;;;;;-2.76;50.12;99311.97;10508834;28;20045;-50
2021/01/12 12:47:17;;;;;;;30.25;11.10;;;;;;;-2.98;50.03;99317.88;10506149;28;20525;-50
2021/01/12 12:52:19;;;;;;;30.05;12.48;;;;;;;-3.26;50.37;99321.44;10503690;28;20382;-50
2021/01/12 12:57:22;;;;;;;23.52;10.55;;;;;;;-3.41;50.73;99309.13;10505338;28;20453;-49
2021/01/12 13:02:26;;;;;;;46.65;19.17;;;;;;;-3.42;50.53;99309.97;10505062;28;20116;-51
2021/01/12 13:07:28;;;;;;;;;;;;;;;-3.39;50.51;99312.44;10506489;28;20054;-49
2021/01/12 13:12:30;;;;;;;31.67;13.20;;;;;;;-3.37;50.36;99318.38;10505033;28;19928;-49
2021/01/12 13:17:42;;;;;;;35.28;12.65;;;;;;;-3.37;50.56;99315.81;10504673;28;20596;-49
2021/01/12 13:22:44;;;;;;;37.47;14.48;;;;;;;-3.43;50.55;99316.03;10503835;28;20052;-50
2021/01/12 13:27:47;;;;;;;36.80;14.20;;;;;;;-3.41;50.73;99314.25;10504253;28;20044;-49
2021/01/12 13:32:51;;;;;;;38.20;16.00;;;;;;;-3.46;50.77;99321.28;10502587;28;20052;-53
2021/01/12 13:37:53;;;;;;;37.15;15.48;;;;;;;-3.39;50.68;99316.75;10503855;28;20469;-49
2021/01/12 13:42:58;;;;;;;31.48;11.50;;;;;;;-3.50;50.65;99314.56;10504122;28;20056;-50
2021/01/12 13:48:01;;;;;;;27.73;10.77;;;;;;;-3.81;50.67;99328.44;10504216;28;20523;-51
2021/01/12 13:53:03;;;;;;;30.80;13.88;;;;;;;-3.94;50.97;99327.16;10503974;28;20049;-49
2021/01/12 13:58:06;;;;;;;40.17;15.20;;;;;;;-4.09;50.80;99330.22;10502995;28;20139;-49
2021/01/12 14:03:10;;;;;;;29.95;9.77;;;;;;;-4.17;51.12;99328.72;10503145;28;20057;-49
2021/01/12 14:08:11;;;;;;;27.15;10.02;;;;;;;-4.18;51.16;99326.19;10504716;28;20108;-54
2021/01/12 14:13:13;;;;;;;18.65;5.55;;;;;;;-4.24;50.83;99334.94;10508417;28;20136;-50
2021/01/12 14:18:20;;;;;;;35.97;13.93;;;;;;;-4.40;51.49;99331.16;10503179;28;20055;-50
2021/01/12 14:23:25;;;;;;;29.77;11.95;;;;;;;-4.34;51.50;99330.09;10501788;28;20036;-51
2021/01/12 14:28:27;;;;;;;35.25;12.60;;;;;;;-4.42;51.23;99332.91;10502519;28;20492;-49
2021/01/12 14:33:31;;;;;;;22.27;9.00;;;;;;;-4.44;51.18;99329.56;10501447;28;20048;-49
2021/01/12 14:38:34;;;;;;;28.23;11.48;;;;;;;-4.47;51.47;99329.66;10501404;28;20048;-50
2021/01/12 14:43:36;;;;;;;27.90;11.40;;;;;;;-4.45;51.19;99327.88;10500985;28;20614;-49
2021/01/12 14:48:39;;;;;;;28.77;10.82;;;;;;;-4.52;51.17;99318.69;10501302;28;20051;-54
2021/01/12 14:53:41;;;;;;;24.37;8.77;;;;;;;-4.74;51.45;99321.91;10501023;28;20052;-50
2021/01/12 14:58:42;;;;;;;30.45;10.23;;;;;;;-4.77;51.40;99316.00;10502365;28;20483;-50
2021/01/12 15:03:46;;;;;;;20.40;6.95;;;;;;;-4.91;51.55;99313.84;10503140;28;20133;-51
2021/01/12 15:08:47;;;;;;;;;;;;;;;-5.18;52.12;99318.00;10503411;28;20044;-50
2021/01/12 15:13:49;;;;;;;29.33;11.00;;;;;;;-5.32;52.54;99336.31;10501195;28;19934;-50
2021/01/12 15:18:52;;;;;;;29.63;9.90;;;;;;;-5.26;52.39;99343.00;10502015;28;20048;-49
2021/01/12 15:23:54;;;;;;;34.17;12.73;;;;;;;-5.26;52.48;99338.72;10501625;28;20071;-50
2021/01/12 15:28:55;;;;;;;28.30;11.20;;;;;;;-5.19;52.53;99334.25;10501894;28;20086;-49
2021/01/12 15:33:58;;;;;;;26.23;11.13;;;;;;;-5.09;52.13;99326.28;10500124;28;20135;-49
2021/01/12 15:39:00;;;;;;;18.00;6.17;;;;;;;-5.04;52.13;99327.88;10500372;28;20480;-49
2021/01/12 15:44:01;;;;;;;25.75;9.35;;;;;;;-5.13;52.27;99334.94;10500979;28;20066;-50
2021/01/12 15:49:05;;;;;;;26.08;9.38;;;;;;;-5.19;52.48;99329.16;10502063;28;20036;-49
2021/01/12 15:54:07;;;;;;;12.00;3.55;;;;;;;-5.22;52.58;99318.97;10500831;28;20064;-50
2021/01/12 15:59:09;;;;;;;33.60;12.25;;;;;;;-5.35;52.42;99306.50;10481548;28;20060;-51
2021/01/12 16:04:13;;;;;;;28.67;10.40;;;;;;;-5.33;52.79;99322.69;10454520;28;20147;-50
2021/01/12 16:09:16;;;;;;;25.95;10.70;;;;;;;-5.17;52.38;99307.72;10452306;28;20053;-50
2021/01/12 16:14:18;;;;;;;;;;;;;;;-5.13;52.09;99301.63;10456071;28;20048;-49
2021/01/12 16:19:25;;;;;;;28.10;11.40;;;;;;;-5.19;52.45;99306.91;10466055;28;20396;-51
2021/01/12 16:24:28;;;;;;;20.98;7.97;;;;;;;-5.28;52.33;99307.16;10455321;28;20127;-51
2021/01/12 16:29:30;;;;;;;17.17;6.82;;;;;;;-5.26;52.77;99307.97;10454507;28;20056;-50
2021/01/12 16:34:36;;;;;;;20.55;9.73;;;;;;;-5.16;52.46;99319.66;10483722;28;20149;-49
2021/01/12 16:39:39;;;;;;;25.55;9.80;;;;;;;-5.17;52.34;99312.84;10495241;28;20055;-50
2021/01/12 16:44:42;;;;;;;30.60;11.10;;;;;;;-5.29;52.58;99305.50;10454355;28;20477;-50
2021/01/12 16:50:23;;;;;;;26.77;8.50;;;;;;;-5.29;52.53;99295.25;10462980;28;20299;-53
2021/01/12 16:55:45;;;;;;;10.02;4.65;;;;;;;-5.32;52.93;99297.91;10462854;28;20072;-49
2021/01/12 17:00:53;;;;;;;19.83;6.80;;;;;;;-5.56;53.00;99300.22;10456038;28;20052;-50
2021/01/12 17:05:58;;;;;;;23.75;7.28;;;;;;;-5.59;53.43;99299.47;10470202;28;20044;-49
2021/01/12 17:11:10;;;;;;;26.27;11.57;;;;;;;-5.46;53.23;99310.22;10503999;28;20072;-49
2021/01/12 17:16:18;;;;;;;26.88;11.10;;;;;;;-5.39;53.33;99296.34;10505653;28;20052;-47
2021/01/12 17:21:45;;;;;;;32.40;10.07;;;;;;;-5.39;53.14;99297.22;10469921;28;20492;-49
2021/01/12 17:26:52;;;;;;;29.98;10.35;;;;;;;-5.32;53.04;99297.91;10419210;28;20055;-49
2021/01/12 17:32:02;;;;;;;18.70;4.40;;;;;;;-5.33;53.33;99301.31;10419294;28;20041;-49
2021/01/12 17:37:05;;;;;;;14.25;5.90;;;;;;;-5.48;53.24;99301.72;10419559;28;20060;-48
2021/01/12 17:42:24;;;;;;;26.20;8.23;;;;;;;-5.51;53.67;99312.06;10418259;28;20045;-47
2021/01/12 17:47:33;;;;;;;14.18;6.22;;;;;;;-5.47;53.46;99309.38;10455237;28;20041;-55
2021/01/12 17:52:40;;;;;;;26.80;9.45;;;;;;;-5.52;53.30;99307.81;10465810;28;20055;-48
2021/01/12 17:57:54;;;;;;;22.42;7.70;;;;;;;-5.41;53.31;99313.50;10459247;28;20056;-49
2021/01/12 18:03:09;;;;;;;21.08;8.68;;;;;;;-5.32;53.33;99316.66;10461239;28;20146;-48
2021/01/12 18:08:23;;;;;;;21.42;8.82;;;;;;;-5.30;53.02;99314.03;10485532;28;20445;-52
2021/01/12 18:13:28;;;;;;;27.10;11.15;;;;;;;-5.27;53.22;99306.28;10498871;28;20040;-49
2021/01/12 18:18:33;;;;;;;28.55;10.90;;;;;;;-5.29;53.02;99308.06;10457736;28;20041;-51
2021/01/12 18:23:46;;;;;;;21.80;8.20;;;;;;;-5.33;53.03;99309.00;10461693;28;20482;-49
2021/01/12 18:29:00;;;;;;;26.90;7.65;;;;;;;-5.37;53.10;99299.72;10463255;28;20118;-48
2021/01/12 18:34:02;;;;;;;22.83;7.65;;;;;;;-5.30;53.22;99297.84;10459463;28;20045;-48
2021/01/12 18:39:07;;;;;;;18.57;8.53;;;;;;;-5.34;53.02;99290.22;10456004;28;20053;-49
2021/01/12 18:44:32;;;;;;;26.77;9.15;;;;;;;-5.39;53.13;99296.34;10458254;28;20075;-49
2021/01/12 18:49:43;;;;;;;26.63;9.18;;;;;;;-5.43;53.07;99305.84;10457037;28;20040;-49
2021/01/12 18:54:48;;;;;;;22.23;9.27;;;;;;;-5.45;53.28;99315.31;10456218;28;20044;-50
2021/01/12 18:59:50;;;;;;;30.95;9.65;;;;;;;-5.61;53.21;99312.28;10453175;28;20197;-49
2021/01/12 19:04:54;;;;;;;20.67;7.47;;;;;;;-5.65;53.55;99317.53;10432776;28;20134;-48
2021/01/12 19:09:57;;;;;;;17.90;6.82;;;;;;;-5.51;53.29;99324.84;10495886;28;20048;-49
2021/01/12 19:15:00;;;;;;;27.25;10.02;;;;;;;-5.59;53.01;99325.91;10498884;28;20380;-48
2021/01/12 19:20:03;;;;;;;21.25;8.68;;;;;;;-5.61;53.38;99330.22;10497967;28;20079;-50
2021/01/12 19:25:07;;;;;;;21.75;8.45;;;;;;;-5.69;53.49;99329.59;10497801;28;20392;-51
2021/01/12 19:30:10;;;;;;;23.98;10.50;;;;;;;-5.68;53.42;99346.63;10493856;28;20079;-50
2021/01/12 19:35:18;;;;;;;24.38;8.70;;;;;;;-5.59;53.16;99346.38;10462601;28;20083;-50
2021/01/12 19:40:22;;;;;;;19.90;6.47;;;;;;;-5.66;53.03;99342.31;10456125;28;20512;-49
2021/01/12 19:45:24;;;;;;;29.80;9.40;;;;;;;-5.76;53.10;99330.59;10457557;28;20143;-50
2021/01/12 19:50:26;;;;;;;19.15;7.20;;;;;;;-5.75;53.08;99329.75;10458337;28;20049;-48
2021/01/12 19:55:29;;;;;;;37.58;8.20;;;;;;;-5.83;53.47;99326.53;10456224;28;20087;-48
2021/01/12 20:00:32;;;;;;;38.47;11.13;;;;;;;-5.86;53.33;99329.16;10455390;28;20053;-48
2021/01/12 20:05:35;;;;;;;25.98;10.95;;;;;;;-5.75;53.44;99328.91;10461305;28;20473;-50
2021/01/12 20:10:39;;;;;;;18.83;7.60;;;;;;;-5.74;53.33;99322.91;10497100;28;20048;-50
2021/01/12 20:15:43;;;;;;;22.38;8.55;;;;;;;-5.92;53.33;99337.81;10497011;28;20139;-48
2021/01/12 20:20:46;;;;;;;13.27;5.10;;;;;;;-6.09;53.43;99345.94;10465996;28;20465;-48
2021/01/12 20:25:51;;;;;;;20.23;6.50;;;;;;;-6.17;53.95;99341.88;10463716;28;20053;-49
2021/01/12 20:30:54;;;;;;;23.63;6.65;;;;;;;-6.27;53.80;99348.91;10463694;28;20106;-50
2021/01/12 20:35:57;;;;;;;11.70;5.47;;;;;;;-6.23;54.10;99342.00;10460714;28;20041;-50
2021/01/12 20:41:02;;;;;;;27.38;7.97;;;;;;;-6.15;53.84;99340.97;10458031;28;20040;-48
2021/01/12 20:46:05;;;;;;;13.52;5.10;;;;;;;-6.14;53.86;99337.50;10459772;28;20147;-49
2021/01/12 20:51:08;;;;;;;16.60;5.25;;;;;;;-6.14;53.76;99321.31;10460863;28;20045;-50
2021/01/12 20:56:12;;;;;;;16.17;7.13;;;;;;;-6.12;53.52;99332.38;10461211;28;20099;-49
2021/01/12 21:01:14;;;;;;;20.05;9.23;;;;;;;-6.14;54.03;99339.25;10461851;28;20057;-49
2021/01/12 21:06:16;;;;;;;24.23;9.02;;;;;;;-6.17;53.68;99331.63;10471785;28;20082;-50
2021/01/12 21:11:18;;;;;;;17.13;5.75;;;;;;;-6.20;53.89;99342.78;10491381;28;20140;-50
2021/01/12 21:16:26;;;;;;;18.20;6.53;;;;;;;-6.25;53.73;99344.59;10461738;28;20045;-50
2021/01/12 21:21:28;;;;;;;19.55;7.25;;;;;;;-6.23;53.88;99340.28;10462811;28;20045;-49
2021/01/12 21:26:39;;;;;;;27.10;10.93;;;;;;;-6.21;53.95;99346.22;10459036;28;20450;-50
2021/01/12 21:31:41;;;;;;;15.73;6.93;;;;;;;-6.17;54.02;99349.53;10459440;28;20057;-48
2021/01/12 21:36:47;;;;;;;16.70;6.65;;;;;;;-6.15;54.01;99333.28;10460328;28;20136;-51
2021/01/12 21:41:51;;;;;;;22.70;7.20;;;;;;;-6.08;54.00;99326.31;10461051;28;20045;-50
2021/01/12 21:46:53;;;;;;;18.55;7.13;;;;;;;-5.99;54.00;99325.25;10460134;28;20485;-49
2021/01/12 21:51:54;;;;;;;22.90;8.43;;;;;;;-5.91;53.61;99313.06;10460218;28;20052;-49
2021/01/12 21:57:00;;;;;;;18.48;6.53;;;;;;;-6.00;53.73;99323.53;10460017;28;20080;-50
2021/01/12 22:02:03;;;;;;;18.27;6.15;;;;;;;-6.07;53.89;99323.69;10460200;28;20075;-50
2021/01/12 22:07:05;;;;;;;23.73;6.28;;;;;;;-6.15;54.15;99330.72;10476285;28;20048;-50
2021/01/12 22:12:08;;;;;;;22.02;8.10;;;;;;;-6.14;54.06;99324.72;10482929;28;20072;-48
2021/01/12 22:17:10;;;;;;;4.97;2.53;;;;;;;-6.07;54.27;99312.63;10458962;28;20114;-49
2021/01/12 22:22:11;;;;;;;25.88;7.38;;;;;;;-6.17;54.43;99317.13;10458513;28;20056;-50
2021/01/12 22:27:14;;;;;;;24.50;9.10;;;;;;;-6.03;54.17;99320.22;10456844;28;20048;-50
2021/01/12 22:32:16;;;;;;;14.30;5.47;;;;;;;-5.85;53.75;99320.59;10456571;28;20049;-49
2021/01/12 22:37:17;;;;;;;26.67;7.70;;;;;;;-5.90;53.95;99325.84;10458267;28;20051;-49
2021/01/12 22:42:20;;;;;;;9.45;3.13;;;;;;;-5.90;53.65;99336.06;10458030;28;20056;-49
2021/01/12 22:47:22;;;;;;;8.57;3.27;;;;;;;-6.03;53.55;99343.25;10458485;28;20059;-48
2021/01/12 22:52:23;;;;;;;22.23;6.68;;;;;;;-6.12;53.79;99337.50;10457137;28;20052;-51
2021/01/12 22:57:26;;;;;;;27.20;9.25;;;;;;;-6.22;53.97;99334.28;10457710;28;20053;-50
2021/01/12 23:02:28;;;;;;;22.40;6.10;;;;;;;-6.12;54.12;99340.06;10461156;28;20120;-50
2021/01/12 23:07:29;;;;;;;22.90;6.53;;;;;;;-6.04;54.02;99333.84;10477404;28;20048;-51
2021/01/12 23:12:32;;;;;;;23.60;7.03;;;;;;;-5.92;53.81;99342.09;10480504;28;20564;-49